createdAt,value
2023-08-15T00:00:07.657Z,1013.13
2023-08-15T00:00:23.738Z,1013.15
2023-08-15T00:00:39.898Z,1013.19
2023-08-15T00:00:56.109Z,1013.18
2023-08-15T00:01:12.249Z,1013.24
2023-08-15T00:01:28.364Z,1013.31
2023-08-15T00:01:44.482Z,1013.31
2023-08-15T00:02:00.668Z,1013.33
2023-08-15T00:02:16.817Z,1013.39
2023-08-15T00:02:32.998Z,1013.41
2023-08-15T00:02:49.142Z,1013.47
2023-08-15T00:03:05.302Z,1013.47
2023-08-15T00:03:21.493Z,1013.46
2023-08-15T00:03:37.575Z,1013.47
2023-08-15T00:03:53.691Z,1013.48
2023-08-15T00:04:09.803Z,1013.5
2023-08-15T00:04:25.931Z,1013.5
2023-08-15T00:04:42.073Z,1013.5
2023-08-15T00:04:58.231Z,1013.49
2023-08-15T00:05:14.380Z,1013.52
2023-08-15T00:05:30.538Z,1013.49
2023-08-15T00:05:46.681Z,1013.47
2023-08-15T00:06:02.874Z,1013.46
2023-08-15T00:06:18.960Z,1013.45
2023-08-15T00:06:35.109Z,1013.47
2023-08-15T00:06:51.264Z,1013.48
2023-08-15T00:07:07.407Z,1013.5
2023-08-15T00:07:23.554Z,1013.48
2023-08-15T00:07:39.695Z,1013.5
2023-08-15T00:07:55.852Z,1013.45
2023-08-15T00:08:23.276Z,1013.47
2023-08-15T00:08:39.416Z,1013.46
2023-08-15T00:08:55.653Z,1013.47
2023-08-15T00:09:11.743Z,1013.46
2023-08-15T00:09:27.845Z,1013.41
2023-08-15T00:09:44.002Z,1013.41
2023-08-15T00:10:00.206Z,1013.42
2023-08-15T00:10:16.287Z,1013.39
2023-08-15T00:10:32.428Z,1013.34
2023-08-15T00:10:48.619Z,1013.36
2023-08-15T00:11:04.732Z,1013.22
2023-08-15T00:11:20.881Z,1013.2
2023-08-15T00:11:37.021Z,1013.16
2023-08-15T00:11:53.159Z,1013.12
2023-08-15T00:12:09.301Z,1013.04
2023-08-15T00:12:25.429Z,1013
2023-08-15T00:12:41.637Z,1013.03
2023-08-15T00:12:57.728Z,1012.97
2023-08-15T00:13:13.887Z,1012.95
2023-08-15T00:13:30.042Z,1012.92
2023-08-15T00:13:46.203Z,1012.93
2023-08-15T00:14:02.398Z,1012.89
2023-08-15T00:14:18.509Z,1012.92
2023-08-15T00:14:34.633Z,1012.88
2023-08-15T00:14:50.797Z,1012.88
2023-08-15T00:15:06.901Z,1012.87
2023-08-15T00:15:23.053Z,1012.87
2023-08-15T00:15:39.239Z,1012.91
2023-08-15T00:15:55.330Z,1012.88
2023-08-15T00:16:11.518Z,1012.83
2023-08-15T00:16:27.723Z,1012.85
2023-08-15T00:16:43.819Z,1012.88
2023-08-15T00:16:59.995Z,1012.83
2023-08-15T00:17:16.135Z,1012.84
2023-08-15T00:17:32.227Z,1012.82
2023-08-15T00:17:48.365Z,1012.82
2023-08-15T00:18:04.543Z,1012.79
2023-08-15T00:18:20.665Z,1012.8
2023-08-15T00:18:36.810Z,1012.77
2023-08-15T00:18:52.972Z,1012.76
2023-08-15T00:19:09.080Z,1012.77
2023-08-15T00:19:25.268Z,1012.78
2023-08-15T00:19:41.358Z,1012.77
2023-08-15T00:19:57.716Z,1012.81
2023-08-15T00:20:13.656Z,1012.81
2023-08-15T00:20:29.824Z,1012.79
2023-08-15T00:20:45.955Z,1012.79
2023-08-15T00:21:02.151Z,1012.75
2023-08-15T00:21:18.249Z,1012.77
2023-08-15T00:21:34.403Z,1012.77
2023-08-15T00:21:50.576Z,1012.75
2023-08-15T00:22:06.683Z,1012.77
2023-08-15T00:22:22.866Z,1012.78
2023-08-15T00:22:39.029Z,1012.78
2023-08-15T00:22:55.118Z,1012.82
2023-08-15T00:23:11.266Z,1012.84
2023-08-15T00:23:27.437Z,1012.84
2023-08-15T00:23:43.568Z,1012.83
2023-08-15T00:23:59.677Z,1012.85
2023-08-15T00:24:15.851Z,1012.89
2023-08-15T00:24:31.993Z,1012.87
2023-08-15T00:24:48.165Z,1012.9
2023-08-15T00:25:04.284Z,1012.9
2023-08-15T00:25:20.432Z,1012.92
2023-08-15T00:25:36.616Z,1012.91
2023-08-15T00:25:52.757Z,1012.9
2023-08-15T00:26:08.879Z,1012.9
2023-08-15T00:26:25.017Z,1012.9
2023-08-15T00:26:41.155Z,1012.9
2023-08-15T00:26:57.316Z,1012.86
2023-08-15T00:27:13.506Z,1012.88
2023-08-15T00:27:29.603Z,1012.92
2023-08-15T00:27:45.758Z,1012.85
2023-08-15T00:28:01.875Z,1012.87
2023-08-15T00:28:18.054Z,1012.88
2023-08-15T00:28:34.185Z,1012.89
2023-08-15T00:28:50.319Z,1012.91
2023-08-15T00:29:06.501Z,1012.91
2023-08-15T00:29:22.616Z,1012.87
2023-08-15T00:29:38.765Z,1012.89
2023-08-15T00:29:54.896Z,1012.9
2023-08-15T00:30:11.087Z,1012.92
2023-08-15T00:30:27.230Z,1012.91
2023-08-15T00:30:43.352Z,1012.93
2023-08-15T00:30:59.508Z,1012.96
2023-08-15T00:31:15.660Z,1012.97
2023-08-15T00:31:31.785Z,1012.99
2023-08-15T00:31:47.966Z,1013
2023-08-15T00:32:04.114Z,1013.04
2023-08-15T00:32:20.214Z,1013.05
2023-08-15T00:32:36.390Z,1013.1
2023-08-15T00:32:52.570Z,1013.1
2023-08-15T00:33:08.729Z,1013.12
2023-08-15T00:33:24.796Z,1013.13
2023-08-15T00:33:40.964Z,1013.15
2023-08-15T00:33:57.113Z,1013.16
2023-08-15T00:34:13.235Z,1013.17
2023-08-15T00:34:29.398Z,1013.18
2023-08-15T00:34:45.564Z,1013.2
2023-08-15T00:35:01.702Z,1013.2
2023-08-15T00:35:17.828Z,1013.18
2023-08-15T00:35:33.986Z,1013.21
2023-08-15T00:35:50.093Z,1013.16
2023-08-15T00:36:06.265Z,1013.19
2023-08-15T00:36:22.414Z,1013.17
2023-08-15T00:36:38.530Z,1013.19
2023-08-15T00:36:54.702Z,1013.23
2023-08-15T00:37:10.844Z,1013.27
2023-08-15T00:37:26.972Z,1013.19
2023-08-15T00:37:43.138Z,1013.2
2023-08-15T00:37:59.270Z,1013.19
2023-08-15T00:38:15.438Z,1013.19
2023-08-15T00:38:31.564Z,1013.17
2023-08-15T00:38:47.700Z,1013.16
2023-08-15T00:39:04.085Z,1013.16
2023-08-15T00:39:19.976Z,1013.15
2023-08-15T00:39:36.206Z,1013.11
2023-08-15T00:39:52.282Z,1013.1
2023-08-15T00:40:08.455Z,1013.11
2023-08-15T00:40:24.582Z,1013.11
2023-08-15T00:40:40.724Z,1013.06
2023-08-15T00:40:56.890Z,1013.11
2023-08-15T00:41:13.039Z,1013.03
2023-08-15T00:41:29.153Z,1013.02
2023-08-15T00:41:45.298Z,1012.99
2023-08-15T00:42:01.461Z,1013.03
2023-08-15T00:42:17.599Z,1013
2023-08-15T00:42:33.765Z,1012.98
2023-08-15T00:42:49.921Z,1012.98
2023-08-15T00:43:06.048Z,1012.96
2023-08-15T00:43:22.196Z,1012.95
2023-08-15T00:43:38.332Z,1012.94
2023-08-15T00:43:54.490Z,1012.94
2023-08-15T00:44:10.647Z,1012.95
2023-08-15T00:44:26.794Z,1012.94
2023-08-15T00:44:42.926Z,1012.94
2023-08-15T00:44:59.122Z,1012.91
2023-08-15T00:45:15.199Z,1012.89
2023-08-15T00:45:31.341Z,1012.91
2023-08-15T00:45:47.473Z,1012.93
2023-08-15T00:46:03.729Z,1012.93
2023-08-15T00:46:19.888Z,1012.9
2023-08-15T00:46:35.964Z,1012.93
2023-08-15T00:46:52.079Z,1012.97
2023-08-15T00:47:08.213Z,1012.93
2023-08-15T00:47:24.401Z,1012.91
2023-08-15T00:47:40.587Z,1012.91
2023-08-15T00:47:56.707Z,1012.89
2023-08-15T00:48:12.838Z,1012.9
2023-08-15T00:48:28.952Z,1012.86
2023-08-15T00:48:45.090Z,1012.87
2023-08-15T00:49:01.287Z,1012.82
2023-08-15T00:49:17.380Z,1012.81
2023-08-15T00:49:33.525Z,1012.82
2023-08-15T00:49:49.687Z,1012.8
2023-08-15T00:50:05.826Z,1012.83
2023-08-15T00:50:21.993Z,1012.82
2023-08-15T00:50:38.118Z,1012.85
2023-08-15T00:50:54.259Z,1012.78
2023-08-15T00:51:10.391Z,1012.85
2023-08-15T00:51:26.568Z,1012.82
2023-08-15T00:51:42.692Z,1012.86
2023-08-15T00:51:58.844Z,1012.85
2023-08-15T00:52:14.997Z,1012.83
2023-08-15T00:52:31.129Z,1012.89
2023-08-15T00:52:47.292Z,1012.85
2023-08-15T00:53:03.415Z,1012.81
2023-08-15T00:53:19.586Z,1012.79
2023-08-15T00:53:35.718Z,1012.82
2023-08-15T00:53:51.861Z,1012.78
2023-08-15T00:54:08.011Z,1012.76
2023-08-15T00:54:24.174Z,1012.75
2023-08-15T00:54:40.290Z,1012.76
2023-08-15T00:54:56.466Z,1012.73
2023-08-15T00:55:12.593Z,1012.69
2023-08-15T00:55:28.740Z,1012.73
2023-08-15T00:55:44.888Z,1012.68
2023-08-15T00:56:01.072Z,1012.69
2023-08-15T00:56:17.177Z,1012.7
2023-08-15T00:56:33.318Z,1012.7
2023-08-15T00:56:49.471Z,1012.68
2023-08-15T00:57:05.646Z,1012.69
2023-08-15T00:57:22.104Z,1012.7
2023-08-15T00:57:37.888Z,1012.69
2023-08-15T00:57:54.037Z,1012.69
2023-08-15T00:58:10.197Z,1012.7
2023-08-15T00:58:26.341Z,1012.72
2023-08-15T00:58:42.480Z,1012.7
2023-08-15T00:58:58.777Z,1012.67
2023-08-15T00:59:14.763Z,1012.69
2023-08-15T00:59:30.953Z,1012.66
2023-08-15T00:59:47.073Z,1012.67
2023-08-15T01:00:03.996Z,1012.66
2023-08-15T01:00:19.424Z,1012.62
2023-08-15T01:00:35.988Z,1012.62
2023-08-15T01:00:51.659Z,1012.62
2023-08-15T01:01:07.831Z,1012.6
2023-08-15T01:01:23.980Z,1012.56
2023-08-15T01:01:40.115Z,1012.53
2023-08-15T01:01:56.311Z,1012.51
2023-08-15T01:02:23.745Z,1012.51
2023-08-15T01:02:39.881Z,1012.54
2023-08-15T01:02:56.118Z,1012.54
2023-08-15T01:03:12.281Z,1012.52
2023-08-15T01:03:28.321Z,1012.55
2023-08-15T01:03:44.512Z,1012.54
2023-08-15T01:04:00.601Z,1012.57
2023-08-15T01:04:16.666Z,1012.55
2023-08-15T01:04:32.861Z,1012.52
2023-08-15T01:04:48.962Z,1012.54
2023-08-15T01:05:05.103Z,1012.56
2023-08-15T01:05:21.255Z,1012.53
2023-08-15T01:05:37.385Z,1012.57
2023-08-15T01:05:53.534Z,1012.57
2023-08-15T01:06:09.679Z,1012.54
2023-08-15T01:06:25.854Z,1012.56
2023-08-15T01:06:41.987Z,1012.57
2023-08-15T01:06:58.132Z,1012.62
2023-08-15T01:07:14.287Z,1012.55
2023-08-15T01:07:30.449Z,1012.59
2023-08-15T01:07:46.566Z,1012.63
2023-08-15T01:08:02.720Z,1012.6
2023-08-15T01:08:18.888Z,1012.56
2023-08-15T01:08:34.993Z,1012.6
2023-08-15T01:08:51.148Z,1012.64
2023-08-15T01:09:07.295Z,1012.61
2023-08-15T01:09:23.430Z,1012.61
2023-08-15T01:09:39.573Z,1012.61
2023-08-15T01:09:55.782Z,1012.58
2023-08-15T01:10:11.910Z,1012.61
2023-08-15T01:10:28.011Z,1012.62
2023-08-15T01:10:44.171Z,1012.58
2023-08-15T01:11:00.325Z,1012.59
2023-08-15T01:11:16.464Z,1012.59
2023-08-15T01:11:32.596Z,1012.58
2023-08-15T01:11:48.800Z,1012.59
2023-08-15T01:12:04.878Z,1012.58
2023-08-15T01:12:21.047Z,1012.59
2023-08-15T01:12:37.222Z,1012.61
2023-08-15T01:12:53.337Z,1012.61
2023-08-15T01:13:09.490Z,1012.6
2023-08-15T01:13:25.637Z,1012.63
2023-08-15T01:13:41.787Z,1012.58
2023-08-15T01:13:57.909Z,1012.6
2023-08-15T01:14:14.064Z,1012.58
2023-08-15T01:14:30.195Z,1012.57
2023-08-15T01:14:46.351Z,1012.58
2023-08-15T01:15:02.494Z,1012.54
2023-08-15T01:15:18.650Z,1012.53
2023-08-15T01:15:34.791Z,1012.51
2023-08-15T01:15:50.978Z,1012.51
2023-08-15T01:16:07.107Z,1012.53
2023-08-15T01:16:23.242Z,1012.48
2023-08-15T01:16:39.444Z,1012.56
2023-08-15T01:16:55.515Z,1012.54
2023-08-15T01:17:11.662Z,1012.53
2023-08-15T01:17:27.843Z,1012.5
2023-08-15T01:17:43.953Z,1012.49
2023-08-15T01:18:00.203Z,1012.48
2023-08-15T01:18:16.244Z,1012.51
2023-08-15T01:18:32.411Z,1012.47
2023-08-15T01:18:48.551Z,1012.51
2023-08-15T01:19:04.689Z,1012.46
2023-08-15T01:19:20.833Z,1012.48
2023-08-15T01:19:36.983Z,1012.44
2023-08-15T01:19:53.118Z,1012.41
2023-08-15T01:20:09.281Z,1012.42
2023-08-15T01:20:25.393Z,1012.38
2023-08-15T01:20:41.540Z,1012.39
2023-08-15T01:20:57.743Z,1012.36
2023-08-15T01:21:13.828Z,1012.4
2023-08-15T01:21:30.040Z,1012.36
2023-08-15T01:21:46.181Z,1012.35
2023-08-15T01:22:02.295Z,1012.34
2023-08-15T01:22:18.436Z,1012.33
2023-08-15T01:22:34.598Z,1012.36
2023-08-15T01:22:50.718Z,1012.34
2023-08-15T01:23:06.882Z,1012.34
2023-08-15T01:23:23.001Z,1012.32
2023-08-15T01:23:39.131Z,1012.33
2023-08-15T01:23:55.340Z,1012.35
2023-08-15T01:24:11.454Z,1012.36
2023-08-15T01:24:27.625Z,1012.37
2023-08-15T01:24:43.758Z,1012.36
2023-08-15T01:24:59.901Z,1012.35
2023-08-15T01:25:16.024Z,1012.34
2023-08-15T01:25:32.187Z,1012.36
2023-08-15T01:25:48.317Z,1012.39
2023-08-15T01:26:04.467Z,1012.39
2023-08-15T01:26:20.614Z,1012.34
2023-08-15T01:26:36.775Z,1012.33
2023-08-15T01:26:52.897Z,1012.36
2023-08-15T01:27:09.071Z,1012.34
2023-08-15T01:27:25.196Z,1012.37
2023-08-15T01:27:41.326Z,1012.34
2023-08-15T01:27:57.510Z,1012.33
2023-08-15T01:28:13.629Z,1012.37
2023-08-15T01:28:29.761Z,1012.36
2023-08-15T01:28:45.900Z,1012.36
2023-08-15T01:29:02.095Z,1012.39
2023-08-15T01:29:18.230Z,1012.36
2023-08-15T01:29:34.358Z,1012.37
2023-08-15T01:29:50.616Z,1012.35
2023-08-15T01:30:06.635Z,1012.36
2023-08-15T01:30:22.801Z,1012.37
2023-08-15T01:30:38.951Z,1012.38
2023-08-15T01:30:55.075Z,1012.38
2023-08-15T01:31:11.325Z,1012.4
2023-08-15T01:31:27.391Z,1012.39
2023-08-15T01:31:43.583Z,1012.4
2023-08-15T01:31:59.790Z,1012.38
2023-08-15T01:32:15.939Z,1012.39
2023-08-15T01:32:32.011Z,1012.38
2023-08-15T01:32:48.166Z,1012.4
2023-08-15T01:33:04.313Z,1012.42
2023-08-15T01:33:20.405Z,1012.43
2023-08-15T01:33:36.531Z,1012.44
2023-08-15T01:33:52.731Z,1012.44
2023-08-15T01:34:08.834Z,1012.43
2023-08-15T01:34:24.966Z,1012.46
2023-08-15T01:34:41.131Z,1012.45
2023-08-15T01:34:57.308Z,1012.42
2023-08-15T01:35:13.413Z,1012.42
2023-08-15T01:35:29.575Z,1012.42
2023-08-15T01:35:45.701Z,1012.43
2023-08-15T01:36:02.009Z,1012.48
2023-08-15T01:36:18.012Z,1012.44
2023-08-15T01:36:34.172Z,1012.48
2023-08-15T01:36:50.345Z,1012.5
2023-08-15T01:37:06.431Z,1012.48
2023-08-15T01:37:23.012Z,1012.51
2023-08-15T01:37:38.742Z,1012.48
2023-08-15T01:37:54.870Z,1012.46
2023-08-15T01:38:11.056Z,1012.46
2023-08-15T01:38:27.158Z,1012.44
2023-08-15T01:38:43.309Z,1012.49
2023-08-15T01:38:59.476Z,1012.47
2023-08-15T01:39:15.614Z,1012.5
2023-08-15T01:39:31.734Z,1012.47
2023-08-15T01:39:47.880Z,1012.49
2023-08-15T01:40:04.048Z,1012.46
2023-08-15T01:40:20.241Z,1012.43
2023-08-15T01:40:36.371Z,1012.44
2023-08-15T01:40:52.496Z,1012.43
2023-08-15T01:41:08.656Z,1012.44
2023-08-15T01:41:24.774Z,1012.48
2023-08-15T01:41:40.893Z,1012.48
2023-08-15T01:41:57.052Z,1012.46
2023-08-15T01:42:13.227Z,1012.44
2023-08-15T01:42:29.356Z,1012.48
2023-08-15T01:42:45.480Z,1012.49
2023-08-15T01:43:01.654Z,1012.48
2023-08-15T01:43:17.804Z,1012.46
2023-08-15T01:43:33.940Z,1012.49
2023-08-15T01:43:50.064Z,1012.48
2023-08-15T01:44:06.238Z,1012.47
2023-08-15T01:44:22.359Z,1012.49
2023-08-15T01:44:38.499Z,1012.51
2023-08-15T01:44:54.651Z,1012.49
2023-08-15T01:45:10.814Z,1012.52
2023-08-15T01:45:26.955Z,1012.51
2023-08-15T01:45:43.140Z,1012.46
2023-08-15T01:45:59.262Z,1012.46
2023-08-15T01:46:15.397Z,1012.43
2023-08-15T01:46:31.557Z,1012.44
2023-08-15T01:46:47.684Z,1012.44
2023-08-15T01:47:03.805Z,1012.44
2023-08-15T01:47:20.204Z,1012.42
2023-08-15T01:47:36.138Z,1012.45
2023-08-15T01:47:52.387Z,1012.38
2023-08-15T01:48:08.459Z,1012.41
2023-08-15T01:48:24.560Z,1012.4
2023-08-15T01:48:40.690Z,1012.41
2023-08-15T01:48:56.822Z,1012.37
2023-08-15T01:49:12.966Z,1012.39
2023-08-15T01:49:29.167Z,1012.39
2023-08-15T01:49:45.290Z,1012.37
2023-08-15T01:50:01.427Z,1012.32
2023-08-15T01:50:17.569Z,1012.35
2023-08-15T01:50:33.732Z,1012.37
2023-08-15T01:50:49.864Z,1012.34
2023-08-15T01:51:06.018Z,1012.35
2023-08-15T01:51:22.173Z,1012.32
2023-08-15T01:51:38.284Z,1012.32
2023-08-15T01:51:54.497Z,1012.31
2023-08-15T01:52:10.624Z,1012.33
2023-08-15T01:52:26.775Z,1012.33
2023-08-15T01:52:42.877Z,1012.33
2023-08-15T01:52:59.032Z,1012.34
2023-08-15T01:53:15.198Z,1012.32
2023-08-15T01:53:31.296Z,1012.34
2023-08-15T01:53:47.487Z,1012.32
2023-08-15T01:54:03.600Z,1012.34
2023-08-15T01:54:19.773Z,1012.35
2023-08-15T01:54:35.900Z,1012.31
2023-08-15T01:54:52.046Z,1012.32
2023-08-15T01:55:08.207Z,1012.36
2023-08-15T01:55:24.349Z,1012.29
2023-08-15T01:55:40.464Z,1012.34
2023-08-15T01:55:56.651Z,1012.37
2023-08-15T01:56:24.076Z,1012.28
2023-08-15T01:56:40.193Z,1012.28
2023-08-15T01:56:56.367Z,1012.27
2023-08-15T01:57:12.467Z,1012.29
2023-08-15T01:57:28.653Z,1012.26
2023-08-15T01:57:44.820Z,1012.29
2023-08-15T01:58:00.936Z,1012.3
2023-08-15T01:58:17.074Z,1012.3
2023-08-15T01:58:33.235Z,1012.28
2023-08-15T01:58:49.365Z,1012.26
2023-08-15T01:59:05.499Z,1012.29
2023-08-15T01:59:21.642Z,1012.29
2023-08-15T01:59:37.794Z,1012.28
2023-08-15T01:59:53.944Z,1012.28
2023-08-15T02:00:10.103Z,1012.29
2023-08-15T02:00:26.263Z,1012.3
2023-08-15T02:00:42.380Z,1012.29
2023-08-15T02:00:58.550Z,1012.3
2023-08-15T02:01:14.682Z,1012.31
2023-08-15T02:01:30.877Z,1012.28
2023-08-15T02:01:47.036Z,1012.33
2023-08-15T02:02:03.119Z,1012.27
2023-08-15T02:02:19.246Z,1012.29
2023-08-15T02:02:35.482Z,1012.29
2023-08-15T02:02:51.585Z,1012.28
2023-08-15T02:03:07.739Z,1012.27
2023-08-15T02:03:23.829Z,1012.3
2023-08-15T02:03:39.979Z,1012.3
2023-08-15T02:03:56.164Z,1012.28
2023-08-15T02:04:12.287Z,1012.28
2023-08-15T02:04:28.429Z,1012.3
2023-08-15T02:04:44.580Z,1012.25
2023-08-15T02:05:00.731Z,1012.28
2023-08-15T02:05:16.926Z,1012.26
2023-08-15T02:05:35.632Z,1012.26
2023-08-15T02:05:49.180Z,1012.27
2023-08-15T02:06:05.300Z,1012.27
2023-08-15T02:06:21.440Z,1012.26
2023-08-15T02:06:37.593Z,1012.25
2023-08-15T02:06:53.728Z,1012.23
2023-08-15T02:07:09.851Z,1012.24
2023-08-15T02:07:26.040Z,1012.25
2023-08-15T02:07:42.188Z,1012.22
2023-08-15T02:07:58.357Z,1012.2
2023-08-15T02:08:14.482Z,1012.24
2023-08-15T02:08:30.627Z,1012.23
2023-08-15T02:08:46.740Z,1012.19
2023-08-15T02:09:02.896Z,1012.17
2023-08-15T02:09:19.035Z,1012.2
2023-08-15T02:09:35.192Z,1012.2
2023-08-15T02:09:51.329Z,1012.22
2023-08-15T02:10:07.481Z,1012.25
2023-08-15T02:10:23.615Z,1012.22
2023-08-15T02:10:39.815Z,1012.23
2023-08-15T02:10:55.959Z,1012.24
2023-08-15T02:11:12.075Z,1012.18
2023-08-15T02:11:28.204Z,1012.18
2023-08-15T02:11:44.379Z,1012.2
2023-08-15T02:12:00.497Z,1012.19
2023-08-15T02:12:16.629Z,1012.22
2023-08-15T02:12:32.790Z,1012.19
2023-08-15T02:12:48.929Z,1012.22
2023-08-15T02:13:05.074Z,1012.26
2023-08-15T02:13:21.215Z,1012.22
2023-08-15T02:13:37.401Z,1012.23
2023-08-15T02:13:53.515Z,1012.22
2023-08-15T02:14:09.682Z,1012.25
2023-08-15T02:14:25.804Z,1012.2
2023-08-15T02:14:41.980Z,1012.21
2023-08-15T02:14:58.117Z,1012.22
2023-08-15T02:15:14.228Z,1012.22
2023-08-15T02:15:30.414Z,1012.21
2023-08-15T02:15:46.574Z,1012.18
2023-08-15T02:16:02.759Z,1012.2
2023-08-15T02:16:18.905Z,1012.2
2023-08-15T02:16:34.998Z,1012.19
2023-08-15T02:16:51.116Z,1012.16
2023-08-15T02:17:07.258Z,1012.18
2023-08-15T02:17:23.604Z,1012.16
2023-08-15T02:17:39.542Z,1012.18
2023-08-15T02:17:55.852Z,1012.18
2023-08-15T02:18:11.883Z,1012.13
2023-08-15T02:18:28.020Z,1012.15
2023-08-15T02:18:44.188Z,1012.16
2023-08-15T02:19:00.288Z,1012.18
2023-08-15T02:19:16.404Z,1012.14
2023-08-15T02:19:32.574Z,1012.17
2023-08-15T02:19:48.718Z,1012.15
2023-08-15T02:20:04.860Z,1012.16
2023-08-15T02:20:21.034Z,1012.16
2023-08-15T02:20:37.137Z,1012.17
2023-08-15T02:20:53.302Z,1012.18
2023-08-15T02:21:09.430Z,1012.15
2023-08-15T02:21:25.584Z,1012.15
2023-08-15T02:21:41.792Z,1012.14
2023-08-15T02:21:57.907Z,1012.15
2023-08-15T02:22:14.058Z,1012.09
2023-08-15T02:22:30.181Z,1012.1
2023-08-15T02:22:46.315Z,1012.1
2023-08-15T02:23:02.466Z,1012.09
2023-08-15T02:23:18.601Z,1012.09
2023-08-15T02:23:34.776Z,1012.13
2023-08-15T02:23:50.880Z,1012.1
2023-08-15T02:24:07.058Z,1012.1
2023-08-15T02:24:23.239Z,1012.1
2023-08-15T02:24:39.339Z,1012.14
2023-08-15T02:24:55.457Z,1012.1
2023-08-15T02:25:11.616Z,1012.09
2023-08-15T02:25:27.811Z,1012.09
2023-08-15T02:25:43.909Z,1012.05
2023-08-15T02:26:00.070Z,1012.11
2023-08-15T02:26:16.228Z,1012.06
2023-08-15T02:26:32.354Z,1012.05
2023-08-15T02:26:48.528Z,1012.04
2023-08-15T02:27:04.863Z,1012.04
2023-08-15T02:27:21.042Z,1012.04
2023-08-15T02:27:36.939Z,1012
2023-08-15T02:27:53.157Z,1012.05
2023-08-15T02:28:09.285Z,1012.04
2023-08-15T02:28:25.376Z,1011.98
2023-08-15T02:28:41.543Z,1011.98
2023-08-15T02:28:57.673Z,1011.97
2023-08-15T02:29:13.803Z,1012.01
2023-08-15T02:29:29.975Z,1011.98
2023-08-15T02:29:46.089Z,1012
2023-08-15T02:30:02.324Z,1011.96
2023-08-15T02:30:18.428Z,1011.99
2023-08-15T02:30:34.524Z,1011.99
2023-08-15T02:30:50.745Z,1011.96
2023-08-15T02:31:06.840Z,1012
2023-08-15T02:31:23.112Z,1011.97
2023-08-15T02:31:39.178Z,1011.97
2023-08-15T02:31:55.253Z,1011.98
2023-08-15T02:32:11.422Z,1011.98
2023-08-15T02:32:27.681Z,1011.93
2023-08-15T02:32:43.712Z,1011.94
2023-08-15T02:32:59.904Z,1011.97
2023-08-15T02:33:16.011Z,1011.93
2023-08-15T02:33:32.122Z,1011.95
2023-08-15T02:33:48.270Z,1011.95
2023-08-15T02:34:04.480Z,1011.9
2023-08-15T02:34:20.604Z,1011.89
2023-08-15T02:34:36.767Z,1011.86
2023-08-15T02:34:52.854Z,1011.91
2023-08-15T02:35:09.005Z,1011.86
2023-08-15T02:35:25.149Z,1011.88
2023-08-15T02:35:41.318Z,1011.88
2023-08-15T02:35:57.469Z,1011.87
2023-08-15T02:36:13.597Z,1011.86
2023-08-15T02:36:29.796Z,1011.87
2023-08-15T02:36:45.921Z,1011.9
2023-08-15T02:37:02.060Z,1011.86
2023-08-15T02:37:18.223Z,1011.9
2023-08-15T02:37:34.353Z,1011.86
2023-08-15T02:37:50.460Z,1011.92
2023-08-15T02:38:06.600Z,1011.86
2023-08-15T02:38:22.774Z,1011.88
2023-08-15T02:38:38.925Z,1011.86
2023-08-15T02:38:55.049Z,1011.84
2023-08-15T02:39:11.232Z,1011.88
2023-08-15T02:39:27.361Z,1011.87
2023-08-15T02:39:43.482Z,1011.85
2023-08-15T02:39:59.657Z,1011.86
2023-08-15T02:40:15.777Z,1011.89
2023-08-15T02:40:31.958Z,1011.84
2023-08-15T02:40:48.062Z,1011.85
2023-08-15T02:41:04.225Z,1011.87
2023-08-15T02:41:20.365Z,1011.83
2023-08-15T02:41:36.510Z,1011.86
2023-08-15T02:41:52.646Z,1011.84
2023-08-15T02:42:08.812Z,1011.83
2023-08-15T02:42:24.990Z,1011.85
2023-08-15T02:42:41.072Z,1011.82
2023-08-15T02:42:57.264Z,1011.82
2023-08-15T02:43:13.369Z,1011.84
2023-08-15T02:43:29.524Z,1011.81
2023-08-15T02:43:45.666Z,1011.8
2023-08-15T02:44:01.828Z,1011.81
2023-08-15T02:44:17.955Z,1011.81
2023-08-15T02:44:34.095Z,1011.81
2023-08-15T02:44:50.267Z,1011.82
2023-08-15T02:45:06.405Z,1011.8
2023-08-15T02:45:22.556Z,1011.84
2023-08-15T02:45:38.684Z,1011.83
2023-08-15T02:45:54.809Z,1011.82
2023-08-15T02:46:10.994Z,1011.81
2023-08-15T02:46:27.130Z,1011.79
2023-08-15T02:46:43.297Z,1011.78
2023-08-15T02:46:59.486Z,1011.77
2023-08-15T02:47:15.558Z,1011.77
2023-08-15T02:47:31.724Z,1011.78
2023-08-15T02:47:47.925Z,1011.77
2023-08-15T02:48:04.064Z,1011.74
2023-08-15T02:48:20.122Z,1011.77
2023-08-15T02:48:36.283Z,1011.73
2023-08-15T02:48:52.418Z,1011.77
2023-08-15T02:49:08.626Z,1011.76
2023-08-15T02:49:24.736Z,1011.72
2023-08-15T02:49:40.870Z,1011.73
2023-08-15T02:49:57.005Z,1011.68
2023-08-15T02:50:24.430Z,1011.69
2023-08-15T02:50:40.628Z,1011.66
2023-08-15T02:50:56.737Z,1011.68
2023-08-15T02:51:12.880Z,1011.65
2023-08-15T02:51:29.026Z,1011.67
2023-08-15T02:51:45.191Z,1011.68
2023-08-15T02:52:01.381Z,1011.65
2023-08-15T02:52:17.474Z,1011.66
2023-08-15T02:52:33.624Z,1011.67
2023-08-15T02:52:49.786Z,1011.67
2023-08-15T02:53:05.991Z,1011.65
2023-08-15T02:53:22.072Z,1011.67
2023-08-15T02:53:38.228Z,1011.72
2023-08-15T02:53:54.352Z,1011.7
2023-08-15T02:54:10.499Z,1011.71
2023-08-15T02:54:26.624Z,1011.69
2023-08-15T02:54:42.785Z,1011.7
2023-08-15T02:54:58.933Z,1011.68
2023-08-15T02:55:15.078Z,1011.71
2023-08-15T02:55:31.244Z,1011.69
2023-08-15T02:55:47.339Z,1011.7
2023-08-15T02:56:03.506Z,1011.74
2023-08-15T02:56:19.652Z,1011.75
2023-08-15T02:56:35.774Z,1011.72
2023-08-15T02:56:51.956Z,1011.73
2023-08-15T02:57:08.083Z,1011.72
2023-08-15T02:57:24.272Z,1011.79
2023-08-15T02:57:40.372Z,1011.73
2023-08-15T02:57:56.561Z,1011.73
2023-08-15T02:58:12.676Z,1011.76
2023-08-15T02:58:28.844Z,1011.75
2023-08-15T02:58:44.954Z,1011.72
2023-08-15T02:59:01.116Z,1011.76
2023-08-15T02:59:17.281Z,1011.71
2023-08-15T02:59:33.414Z,1011.75
2023-08-15T02:59:49.539Z,1011.75
2023-08-15T03:00:05.701Z,1011.74
2023-08-15T03:00:21.866Z,1011.74
2023-08-15T03:00:38.017Z,1011.73
2023-08-15T03:00:54.229Z,1011.71
2023-08-15T03:01:10.346Z,1011.72
2023-08-15T03:01:26.416Z,1011.73
2023-08-15T03:01:42.593Z,1011.71
2023-08-15T03:01:58.791Z,1011.66
2023-08-15T03:02:14.850Z,1011.67
2023-08-15T03:02:31.080Z,1011.71
2023-08-15T03:02:47.164Z,1011.69
2023-08-15T03:03:03.310Z,1011.72
2023-08-15T03:03:19.503Z,1011.72
2023-08-15T03:03:35.633Z,1011.7
2023-08-15T03:03:51.735Z,1011.69
2023-08-15T03:04:07.867Z,1011.74
2023-08-15T03:04:24.009Z,1011.72
2023-08-15T03:04:40.181Z,1011.74
2023-08-15T03:04:56.324Z,1011.73
2023-08-15T03:05:12.463Z,1011.75
2023-08-15T03:05:28.608Z,1011.73
2023-08-15T03:05:44.757Z,1011.76
2023-08-15T03:06:00.952Z,1011.8
2023-08-15T03:06:17.030Z,1011.79
2023-08-15T03:06:33.177Z,1011.82
2023-08-15T03:06:49.344Z,1011.78
2023-08-15T03:07:05.468Z,1011.81
2023-08-15T03:07:21.959Z,1011.77
2023-08-15T03:07:37.831Z,1011.77
2023-08-15T03:07:53.904Z,1011.76
2023-08-15T03:08:10.073Z,1011.8
2023-08-15T03:08:26.205Z,1011.78
2023-08-15T03:08:42.461Z,1011.8
2023-08-15T03:08:58.499Z,1011.81
2023-08-15T03:09:14.672Z,1011.78
2023-08-15T03:09:30.826Z,1011.77
2023-08-15T03:09:46.929Z,1011.8
2023-08-15T03:10:03.144Z,1011.83
2023-08-15T03:10:19.243Z,1011.86
2023-08-15T03:10:35.377Z,1011.87
2023-08-15T03:10:51.532Z,1011.85
2023-08-15T03:11:07.664Z,1011.86
2023-08-15T03:11:23.803Z,1011.88
2023-08-15T03:11:39.950Z,1011.88
2023-08-15T03:11:56.088Z,1011.9
2023-08-15T03:12:12.281Z,1011.91
2023-08-15T03:12:28.373Z,1011.9
2023-08-15T03:12:44.605Z,1011.91
2023-08-15T03:13:00.723Z,1011.96
2023-08-15T03:13:16.811Z,1011.95
2023-08-15T03:13:32.995Z,1011.95
2023-08-15T03:13:49.178Z,1011.96
2023-08-15T03:14:05.260Z,1011.95
2023-08-15T03:14:21.434Z,1011.95
2023-08-15T03:14:37.548Z,1011.93
2023-08-15T03:14:53.688Z,1011.95
2023-08-15T03:15:09.859Z,1011.96
2023-08-15T03:15:26.002Z,1011.94
2023-08-15T03:15:42.133Z,1011.96
2023-08-15T03:15:58.286Z,1011.94
2023-08-15T03:16:14.466Z,1011.96
2023-08-15T03:16:30.662Z,1011.9
2023-08-15T03:16:46.763Z,1011.95